createdAt,value
2023-08-08T00:04:18.624Z,99040.60
2023-08-08T00:09:21.713Z,99043.33
2023-08-08T00:14:25.530Z,99044.70
2023-08-08T00:19:28.544Z,99047.06
2023-08-08T00:24:31.270Z,99042.16
2023-08-08T00:29:34.226Z,99047.27
2023-08-08T00:34:37.133Z,99060.03
2023-08-08T00:39:40.517Z,99060.49
2023-08-08T00:44:43.276Z,99063.72
2023-08-08T00:49:49.676Z,99072.09
2023-08-08T00:54:53.410Z,99079.20
2023-08-08T00:59:56.274Z,99076.85
2023-08-08T01:04:59.195Z,99091.11
2023-08-08T01:10:09.808Z,99094.18
2023-08-08T01:15:14.106Z,99101.20
2023-08-08T01:20:18.101Z,99103.84
2023-08-08T01:25:21.553Z,99103.76
2023-08-08T01:30:24.324Z,99107.36
2023-08-08T01:35:31.769Z,99111.30
2023-08-08T01:40:36.556Z,99115.48
2023-08-08T01:45:39.933Z,99122.21
2023-08-08T01:50:42.847Z,99123.98
2023-08-08T01:55:45.584Z,99124.02
2023-08-08T02:00:48.727Z,99132.61
2023-08-08T02:05:51.645Z,99131.27
2023-08-08T02:10:54.622Z,99143.21
2023-08-08T02:15:57.432Z,99149.10
2023-08-08T02:21:00.266Z,99149.10
2023-08-08T02:26:03.526Z,99156.54
2023-08-08T02:31:06.265Z,99151.85
2023-08-08T02:36:09.021Z,99160.37
2023-08-08T02:41:11.825Z,99154.41
2023-08-08T02:46:14.848Z,99161.29
2023-08-08T02:51:17.598Z,99167.21
2023-08-08T02:56:20.351Z,99174.48
2023-08-08T03:01:23.441Z,99175.54
2023-08-08T03:06:26.440Z,99175.05
2023-08-08T03:11:29.399Z,99179.48
2023-08-08T03:16:32.250Z,99176.59
2023-08-08T03:21:35.175Z,99180.78
2023-08-08T03:26:38.049Z,99185.09
2023-08-08T03:31:40.953Z,99182.71
2023-08-08T03:36:43.784Z,99185.85
2023-08-08T03:41:46.663Z,99192.14
2023-08-08T03:46:51.333Z,99199.91
2023-08-08T03:51:55.200Z,99205.88
2023-08-08T03:56:59.596Z,99215.23
2023-08-08T04:02:03.908Z,99222.55
2023-08-08T04:07:06.990Z,99226.31
2023-08-08T04:12:10.072Z,99229.46
2023-08-08T04:17:13.060Z,99237.38
2023-08-08T04:22:16.867Z,99247.59
2023-08-08T04:27:19.746Z,99250.96
2023-08-08T04:32:22.557Z,99254.65
2023-08-08T04:37:25.556Z,99256.03
2023-08-08T04:42:28.364Z,99265.04
2023-08-08T04:47:31.297Z,99271.13
2023-08-08T04:52:34.725Z,99284.02
2023-08-08T04:57:37.676Z,99282.01
2023-08-08T05:02:42.373Z,99287.39
2023-08-08T05:07:45.390Z,99292.65
2023-08-08T05:12:48.236Z,99298.29
2023-08-08T05:17:51.164Z,99298.71
2023-08-08T05:22:54.103Z,99299.75
2023-08-08T05:27:56.990Z,99307.50
2023-08-08T05:32:59.992Z,99315.92
2023-08-08T05:38:02.851Z,99310.39
2023-08-08T05:43:05.837Z,99309.46
2023-08-08T05:48:11.018Z,99319.12
2023-08-08T05:53:14.293Z,99328.38
2023-08-08T05:58:17.477Z,99332.35
2023-08-08T06:03:20.292Z,99332.16
2023-08-08T06:08:23.302Z,99326.02
2023-08-08T06:13:26.276Z,99340.23
2023-08-08T06:18:29.148Z,99337.08
2023-08-08T06:23:32.005Z,99341.76
2023-08-08T06:28:35.221Z,99351.27
2023-08-08T06:33:38.060Z,99354.20
2023-08-08T06:38:40.967Z,99358.55
2023-08-08T06:43:45.278Z,99357.05
2023-08-08T06:48:49.283Z,99360.07
2023-08-08T06:53:53.646Z,99362.70
2023-08-08T06:58:57.120Z,99365.91
2023-08-08T07:04:00.687Z,99366.03
2023-08-08T07:09:07.478Z,99372.79
2023-08-08T07:14:10.628Z,99378.93
2023-08-08T07:19:14.197Z,99379.77
2023-08-08T07:24:21.101Z,99385.06
2023-08-08T07:29:24.055Z,99402.64
2023-08-08T07:34:26.998Z,99397.83
2023-08-08T07:39:30.238Z,99413.25
2023-08-08T07:44:35.893Z,99423.07
2023-08-08T07:49:39.168Z,99423.38
2023-08-08T07:54:42.539Z,99430.55
2023-08-08T07:59:45.616Z,99446.81
2023-08-08T08:04:48.520Z,99444.41
2023-08-08T08:09:51.708Z,99455.08
2023-08-08T08:14:54.641Z,99454.34
2023-08-08T08:19:58.006Z,99463.52
2023-08-08T08:25:01.413Z,99461.10
2023-08-08T08:30:06.497Z,99463.61
2023-08-08T08:35:10.295Z,99462.60
2023-08-08T08:40:13.748Z,99461.82
2023-08-08T08:45:21.091Z,99468.12
2023-08-08T08:50:27.647Z,99467.16
2023-08-08T08:55:30.450Z,99465.44
2023-08-08T09:00:35.084Z,99477.29
2023-08-08T09:05:42.321Z,99480.68
2023-08-08T09:10:45.657Z,99490.14
2023-08-08T09:15:50.576Z,99481.20
2023-08-08T09:20:53.597Z,99485.56
2023-08-08T09:25:56.780Z,99483.95
2023-08-08T09:31:00.314Z,99499.74
2023-08-08T09:36:03.726Z,99501.23
2023-08-08T09:41:07.652Z,99506.16
2023-08-08T09:46:11.534Z,99511.98
2023-08-08T09:51:16.317Z,99522.61
2023-08-08T09:56:20.433Z,99533.34
2023-08-08T10:01:27.344Z,99537.27
2023-08-08T10:06:30.496Z,99546.48
2023-08-08T10:11:35.469Z,99547.25
2023-08-08T10:16:39.324Z,99549.73
2023-08-08T10:21:45.112Z,99549.25
2023-08-08T10:26:56.036Z,99544.52
2023-08-08T10:32:02.236Z,99541.10
2023-08-08T10:37:06.962Z,99546.23
2023-08-08T10:42:09.799Z,99555.39
2023-08-08T10:47:12.676Z,99564.45
2023-08-08T10:52:15.885Z,99563.05
2023-08-08T10:57:20.644Z,99566.46
2023-08-08T11:02:24.307Z,99556.61
2023-08-08T11:07:29.808Z,99558.63
2023-08-08T11:12:32.721Z,99567.96
2023-08-08T11:17:37.533Z,99563.16
2023-08-08T11:22:40.380Z,99567.86
2023-08-08T11:27:51.284Z,99574.45
2023-08-08T11:38:02.244Z,99589.30
2023-08-08T11:43:05.444Z,99594.25
2023-08-08T11:48:09.619Z,99596.67
2023-08-08T11:53:13.198Z,99593.87
2023-08-08T11:58:16.354Z,99599.30
2023-08-08T12:03:22.221Z,99596.85
2023-08-08T12:08:25.305Z,99606.41
2023-08-08T12:13:29.388Z,99600.02
2023-08-08T12:18:32.322Z,99604.15
2023-08-08T12:23:36.677Z,99611.89
2023-08-08T12:28:39.670Z,99609.37
2023-08-08T12:33:42.540Z,99604.71
2023-08-08T12:38:47.010Z,99613.98
2023-08-08T12:43:51.193Z,99615.86
2023-08-08T12:48:54.231Z,99627.94
2023-08-08T12:53:59.330Z,99636.33
2023-08-08T12:59:04.202Z,99629.23
2023-08-08T13:04:18.994Z,99635.81
2023-08-08T13:09:22.804Z,99637.89
2023-08-08T13:14:25.763Z,99645.55
2023-08-08T13:19:28.657Z,99646.19
2023-08-08T13:24:31.810Z,99646.05
2023-08-08T13:29:34.683Z,99648.88
2023-08-08T13:34:37.573Z,99672.91
2023-08-08T13:39:40.601Z,99729.10
2023-08-08T13:44:46.260Z,99729.17
2023-08-08T13:49:56.228Z,99716.57
2023-08-08T13:55:02.666Z,99707.05
2023-08-08T14:00:08.082Z,99713.25
2023-08-08T14:05:12.649Z,99714.48
2023-08-08T14:10:18.319Z,99717.43
2023-08-08T14:15:22.473Z,99709.91
2023-08-08T14:20:28.672Z,99720.02
2023-08-08T14:25:31.714Z,99711.59
2023-08-08T14:30:34.658Z,99720.02
2023-08-08T14:35:37.885Z,99720.14
2023-08-08T14:40:40.906Z,99714.74
2023-08-08T14:45:43.761Z,99719.42
2023-08-08T14:50:46.718Z,99722.77
2023-08-08T14:55:50.283Z,99724.15
2023-08-08T15:00:53.157Z,99725.64
2023-08-08T15:05:55.991Z,99725.19
2023-08-08T15:10:58.838Z,99716.94
2023-08-08T15:16:02.152Z,99716.56
2023-08-08T15:21:05.413Z,99713.73
2023-08-08T15:26:08.309Z,99707.68
2023-08-08T15:31:11.169Z,99701.50
2023-08-08T15:36:14.172Z,99697.83
2023-08-08T15:41:17.161Z,99705.61
2023-08-08T15:46:20.063Z,99705.92
2023-08-08T15:51:22.888Z,99713.91
2023-08-08T15:56:25.740Z,99722.14
2023-08-08T16:01:28.726Z,99724.95
2023-08-08T16:06:31.632Z,99722.77
2023-08-08T16:11:34.485Z,99722.06
2023-08-08T16:16:39.989Z,99716.75
2023-08-08T16:21:42.853Z,99721.23
2023-08-08T16:26:45.721Z,99730.14
2023-08-08T16:31:48.569Z,99732.80
2023-08-08T16:36:51.367Z,99734.89
2023-08-08T16:41:59.702Z,99734.65
2023-08-08T16:47:04.374Z,99743.16
2023-08-08T16:52:08.609Z,99742.95
2023-08-08T16:57:15.114Z,99744.20
2023-08-08T17:02:20.759Z,99749.16
2023-08-08T17:07:26.026Z,99756.30
2023-08-08T17:12:29.099Z,99758.12
2023-08-08T17:17:51.160Z,99769.30
2023-08-08T17:22:58.187Z,99769.56
2023-08-08T17:28:04.582Z,99769.60
2023-08-08T17:33:07.639Z,99769.42
2023-08-08T17:38:10.552Z,99769.50
2023-08-08T17:43:13.471Z,99771.08
2023-08-08T17:48:16.585Z,99773.57
2023-08-08T17:53:19.418Z,99778.80
2023-08-08T17:58:22.460Z,99778.40
2023-08-08T18:03:25.280Z,99786.12
2023-08-08T18:08:28.179Z,99784.10
2023-08-08T18:13:31.018Z,99787.02
2023-08-08T18:18:33.987Z,99785.17
2023-08-08T18:23:37.900Z,99787.02
2023-08-08T18:28:41.309Z,99783.13
2023-08-08T18:33:44.805Z,99781.89
2023-08-08T18:38:47.648Z,99786.59
2023-08-08T18:43:51.125Z,99795.28
2023-08-08T18:48:54.532Z,99796.84
2023-08-08T18:53:59.696Z,99793.73
2023-08-08T18:59:03.417Z,99792.94
2023-08-08T19:04:08.004Z,99794.90
2023-08-08T19:09:17.971Z,99801.84
2023-08-08T19:14:24.156Z,99818.69
2023-08-08T19:19:35.336Z,99819.27
2023-08-08T19:24:41.235Z,99827.17
2023-08-08T19:29:44.275Z,99821.70
2023-08-08T19:34:49.803Z,99817.83
2023-08-08T19:39:52.727Z,99814.13
2023-08-08T19:44:55.541Z,99807.83
2023-08-08T19:49:58.366Z,99803.10
2023-08-08T19:55:01.194Z,99804.55
2023-08-08T20:00:05.202Z,99798.95
2023-08-08T20:05:09.384Z,99796.20
2023-08-08T20:10:12.264Z,99788.02
2023-08-08T20:15:15.190Z,99781.82
2023-08-08T20:20:18.076Z,99777.92
2023-08-08T20:25:20.867Z,99780.65
2023-08-08T20:30:23.755Z,99774.59
2023-08-08T20:35:26.651Z,99769.52
2023-08-08T20:40:30.811Z,99768.03
2023-08-08T20:45:35.640Z,99776.35
2023-08-08T20:50:39.798Z,99770.98
2023-08-08T20:55:44.477Z,99759.05
2023-08-08T21:00:50.595Z,99753.36
2023-08-08T21:05:53.817Z,99755.27
2023-08-08T21:10:57.488Z,99756.20
2023-08-08T21:16:00.779Z,99759.03
2023-08-08T21:21:07.506Z,99763.94
2023-08-08T21:26:20.624Z,99759.62
2023-08-08T21:31:42.726Z,99778.27
2023-08-08T21:36:47.085Z,99776.30
2023-08-08T21:41:49.994Z,99781.80
2023-08-08T21:46:53.066Z,99780.29
2023-08-08T21:51:55.852Z,99777.52
2023-08-08T21:56:58.700Z,99777.97
2023-08-08T22:02:02.043Z,99779.15
2023-08-08T22:07:05.129Z,99791.66
2023-08-08T22:12:08.245Z,99798.95
2023-08-08T22:17:11.130Z,99804.15
2023-08-08T22:22:13.928Z,99806.54
2023-08-08T22:27:16.748Z,99807.49
2023-08-08T22:32:19.532Z,99800.00
2023-08-08T22:37:22.474Z,99798.92
2023-08-08T22:42:25.285Z,99797.61
2023-08-08T22:47:28.483Z,99801.23
2023-08-08T22:52:36.058Z,99802.59
2023-08-08T22:57:39.872Z,99808.23
2023-08-08T23:02:43.072Z,99819.58
2023-08-08T23:07:46.054Z,99818.27
2023-08-08T23:12:48.882Z,99822.94
2023-08-08T23:17:51.679Z,99827.48
2023-08-08T23:22:54.543Z,99825.24
2023-08-08T23:27:57.354Z,99825.02
2023-08-08T23:33:01.067Z,99827.88
2023-08-08T23:38:04.843Z,99823.30
2023-08-08T23:43:07.631Z,99831.52
2023-08-08T23:48:10.438Z,99837.93
2023-08-08T23:53:14.397Z,99838.98
2023-08-08T23:58:17.221Z,99833.73
